• Join FlightAware (Why Join?)
  • Login
  • US Flag 
11:36AM EDT


 

Airport Tracker/Info


-or-


 

Live Flight TrackerFlight Track Log ✈ GJS3618 ✈ 23-Aug-2013 ✈ KORD - KBZN

Flight Track Log - Related Links

Times and Time Zones

All times are in EDT time to prevent confusion due to time zone crossing. See the GJS3618 flight status page for this flight to view local times or setup timezone preferences in your user account.

Time Position Orientation Groundspeed Altitude Reporting Facility
EDT Latitude Longitude Course Direction KTS MPH feet Rate Location/Type
10:49PM 42.0167 -87.9500 270° West 178 205 1,900  Level Chicago TRACON
10:50PM 42.0500 -88.0000 312° West 220 253 4,000 2,220 Climbing Chicago TRACON
10:53PM 42.1342 -88.1628 305° West 267 307 9,100 2,040 Climbing Chicago Center
10:54PM 42.1250 -88.2689 263° West 282 325 10,700 1,620 Climbing Chicago Center
10:55PM 41.9667 -88.7998 270° West  Level FlightAware Approximate
10:55PM 42.1197 -88.3914 267° West 316 364 12,400  Level Chicago Center
10:56PM 42.1161 -88.5200 268° West 339 390 14,100 1,620 Climbing Chicago Center
10:57PM 42.1125 -88.6511 268° West 348 400 15,800 1,620 Climbing Chicago Center
10:58PM 42.1075 -88.7875 267° West 362 417 17,500 1,620 Climbing Chicago Center
10:59PM 42.1036 -88.9533 268° West 371 427 19,200 1,320 Climbing Chicago Center
11:00PM 42.0983 -89.0972 267° West 379 436 20,300 1,140 Climbing Chicago Center
11:01PM 42.0928 -89.2503 267° West 406 467 21,600 1,200 Climbing Chicago Center
11:02PM 42.0897 -89.4039 269° West 409 471 22,800 1,200 Climbing Chicago Center
11:03PM 42.0883 -89.5594 269° West 414 476 24,100 1,200 Climbing Chicago Center
11:04PM 42.0878 -89.7178 270° West 419 482 25,300 900 Climbing Chicago Center
11:05PM 42.0842 -89.8775 268° West 425 489 26,000 660 Climbing Chicago Center
11:06PM 42.0800 -90.0214 268° West 433 498 26,700 720 Climbing Chicago Center
11:07PM 42.1197 -90.2100 286° West 439 505 27,500 720 Climbing Chicago Center
11:08PM 42.1581 -90.3647 289° West 441 507 28,200 660 Climbing Chicago Center
11:09PM 42.2000 -90.5197 290° West 443 510 28,900 660 Climbing Chicago Center
11:10PM 42.2436 -90.6739 291° West 444 511 29,600 660 Climbing Chicago Center
11:11PM 42.2867 -90.8283 291° West 443 510 30,300 660 Climbing Chicago Center
11:12PM 42.3292 -90.9853 290° West 447 514 31,000 660 Climbing Chicago Center
11:13PM 42.3717 -91.1400 290° West 443 510 31,700 660 Climbing Chicago Center
11:14PM 42.4139 -91.2956 290° West 442 509 32,400 660 Climbing Chicago Center
11:15PM 42.4542 -91.4514 289° West 442 509 33,100 660 Climbing Chicago Center
11:16PM 42.4958 -91.6058 290° West 437 503 33,800 660 Climbing Chicago Center
11:17PM 42.5358 -91.7583 290° West 430 495 34,500 780 Climbing Chicago Center
11:18PM 42.5844 -91.9397 290° West 426 490 35,400 720 Climbing Chicago Center
11:19PM 42.6228 -92.0878 289° West 420 483 36,000 240 Climbing Chicago Center
11:20PM 42.6617 -92.2378 289° West 421 484 36,000  Level Chicago Center
11:21PM 42.7006 -92.3897 289° West 426 490 36,000  Level Chicago Center
11:22PM 42.7406 -92.5433 290° West 433 498 36,000  Level Chicago Center
11:23PM 42.7722 -92.6681 289° West 433 498 36,000  Level Minneapolis Center
11:24PM 42.8108 -92.8233 289° West 436 502 36,000  Level Minneapolis Center
11:25PM 42.8497 -92.9775 289° West 434 499 36,000  Level Minneapolis Center
11:26PM 42.8964 -93.1603 289° West 430 495 36,000  Level Minneapolis Center
11:27PM 42.9344 -93.3131 289° West 429 494 36,000  Level Minneapolis Center
11:28PM 42.9728 -93.4658 289° West 430 495 36,000  Level Minneapolis Center
11:29PM 43.0133 -93.6178 290° West 429 494 36,000  Level Minneapolis Center
11:30PM 43.0453 -93.7739 286° West 430 495 36,000  Level Minneapolis Center
11:31PM 43.0808 -93.9281 288° West 430 495 36,000  Level Minneapolis Center
11:32PM 43.1206 -94.0833 289° West 433 498 36,000  Level Minneapolis Center
11:33PM 43.1664 -94.2678 289° West 433 498 36,000  Level Minneapolis Center
11:34PM 43.2044 -94.4211 289° West 427 491 36,000  Level Minneapolis Center
11:35PM 43.2414 -94.5781 288° West 431 496 36,000  Level Minneapolis Center
11:36PM 43.2778 -94.7342 288° West 430 495 36,000  Level Minneapolis Center
11:37PM 43.3136 -94.8933 287° West 436 502 36,000  Level Minneapolis Center
11:38PM 43.3506 -95.0467 288° West 427 491 36,000  Level Minneapolis Center
11:39PM 43.3858 -95.2031 287° West 427 491 36,000  Level Minneapolis Center
11:40PM 43.4211 -95.3594 287° West 428 493 36,000  Level Minneapolis Center
11:41PM 43.4561 -95.5144 287° West 426 490 36,000  Level Minneapolis Center
11:42PM 43.4917 -95.6725 287° West 429 494 36,000  Level Minneapolis Center
11:43PM 43.5269 -95.8308 287° West 431 496 36,000  Level Minneapolis Center
11:44PM 43.5617 -95.9892 287° West 431 496 36,000  Level Minneapolis Center
11:45PM 43.5967 -96.1492 287° West 433 498 36,000  Level Minneapolis Center
11:46PM 43.6319 -96.3094 287° West 434 499 36,000  Level Minneapolis Center
11:47PM 43.6664 -96.4694 287° West 433 498 36,000  Level Minneapolis Center
11:48PM 43.7008 -96.6308 286° West 435 501 36,000  Level Minneapolis Center
11:49PM 43.7350 -96.7931 286° West 437 503 36,000  Level Minneapolis Center
11:50PM 43.7764 -96.9850 287° West 434 499 36,000  Level Minneapolis Center
11:51PM 43.8097 -97.1467 286° West 436 502 36,000  Level Minneapolis Center
11:52PM 43.8439 -97.3094 286° West 439 505 36,000  Level Minneapolis Center
11:53PM 43.8772 -97.4708 286° West 436 502 36,000  Level Minneapolis Center
11:54PM 43.9092 -97.6322 285° West 436 502 36,000  Level Minneapolis Center
11:55PM 43.9417 -97.7942 286° West 435 501 36,000  Level Minneapolis Center
11:56PM 43.9753 -97.9547 286° West 434 499 36,000  Level Minneapolis Center
11:57PM 44.0075 -98.1147 286° West 432 497 36,000  Level Minneapolis Center
11:58PM 44.0389 -98.2769 285° West 434 499 36,000  Level Minneapolis Center
11:59PM 44.0703 -98.4394 285° West 436 502 36,000  Level Minneapolis Center
12:00AM 44.1019 -98.6025 285° West 437 503 36,000  Level Minneapolis Center
12:01AM 44.1353 -98.7811 285° West 442 509 36,000  Level Minneapolis Center
12:03AM 44.1667 -98.9453 285° West 439 505 36,000  Level Minneapolis Center
12:04AM 44.1972 -99.1083 285° West 437 503 36,000  Level Minneapolis Center
12:05AM 44.2300 -99.2719 286° West 438 504 36,000  Level Minneapolis Center
12:06AM 44.2603 -99.4372 284° West 439 505 36,000  Level Minneapolis Center
12:07AM 44.2892 -99.6028 284° West 438 504 36,000  Level Minneapolis Center
12:08AM 44.3192 -99.7697 284° West 440 506 36,000  Level Minneapolis Center
12:09AM 44.3497 -99.9361 284° West 441 507 36,000  Level Minneapolis Center
12:10AM 44.3806 -100.1028 285° West 440 506 36,000  Level Minneapolis Center
12:11AM 44.4097 -100.2689 284° West 439 505 36,000  Level Minneapolis Center
12:12AM 44.4383 -100.4358 284° West 439 505 36,000  Level Minneapolis Center
12:13AM 44.4683 -100.6011 284° West 438 504 36,000  Level Minneapolis Center
12:14AM 44.4967 -100.7664 284° West 437 503 36,000  Level Minneapolis Center
12:15AM 44.5247 -100.9322 283° West 437 503 36,000  Level Minneapolis Center
12:16AM 44.5536 -101.0983 284° West 437 503 36,000  Level Minneapolis Center
12:17AM 44.5817 -101.2642 283° West 437 503 36,000  Level Minneapolis Center
12:18AM 44.6181 -101.4653 284° West 440 506 36,000  Level Minneapolis Center
12:19AM 44.6453 -101.6325 283° West 439 505 36,100 360 Climbing Minneapolis Center
12:20AM 44.6714 -101.7989 282° West 438 504 36,800 600 Climbing Minneapolis Center
12:21AM 44.6986 -101.9614 283° West 432 497 37,400 540 Climbing Minneapolis Center
12:22AM 44.7242 -102.1231 283° West 426 490 38,000 360 Climbing Minneapolis Center
12:22AM 44.7367 -102.2169 281° West 421 484 38,000  Level Denver Center
12:23AM 44.7628 -102.3758 283° West 418 481 38,000  Level Denver Center
12:24AM 44.7875 -102.5381 282° West 421 484 38,000  Level Denver Center
12:25AM 44.8128 -102.7003 282° West 423 487 38,000  Level Denver Center
12:26AM 44.8378 -102.8622 282° West 424 488 38,000  Level Denver Center
12:27AM 44.8631 -103.0256 282° West 426 490 38,000  Level Denver Center
12:28AM 44.8861 -103.1906 281° West 428 493 38,000  Level Denver Center
12:29AM 44.9039 -103.2989 283° West 425 489 38,000  Level Salt Lake Center
12:30AM 44.9314 -103.4822 282° West 427 491 38,000  Level Salt Lake Center
12:31AM 44.9544 -103.6394 282° West 428 493 38,000  Level Salt Lake Center
12:32AM 44.9761 -103.7992 281° West 431 496 38,000  Level Salt Lake Center
12:33AM 45.0039 -103.9847 282° West 432 497 38,000  Level Salt Lake Center
12:34AM 45.0253 -104.1450 281° West 434 499 38,000  Level Salt Lake Center
12:35AM 45.0386 -104.3317 276° West 430 495 38,000  Level Salt Lake Center
12:36AM 45.0506 -104.4919 276° West 430 495 38,000  Level Salt Lake Center
12:37AM 45.0581 -104.6617 274° West 428 493 38,000  Level Salt Lake Center
12:38AM 45.0678 -104.8253 275° West 422 486 38,000  Level Salt Lake Center
12:39AM 45.0783 -104.9925 275° West 427 491 38,000  Level Salt Lake Center
12:40AM 45.0878 -105.1542 275° West 417 480 38,000  Level Salt Lake Center
12:41AM 45.0944 -105.3178 273° West 417 480 38,000  Level Salt Lake Center
12:42AM 45.1008 -105.4828 273° West 422 486 38,000  Level Salt Lake Center
12:43AM 45.1175 -105.6778 277° West 419 482 38,000  Level Salt Lake Center
12:44AM 45.1417 -105.8425 282° West 427 491 38,000  Level Salt Lake Center
12:45AM 45.1667 -106.0064 282° West 427 491 38,000  Level Salt Lake Center
12:46AM 45.1903 -106.1717 282° West 429 494 38,000  Level Salt Lake Center
12:47AM 45.2136 -106.3367 281° West 429 494 38,000  Level Salt Lake Center
12:49AM 45.2358 -106.5025 281° West 429 494 38,000  Level Salt Lake Center
12:50AM 45.2603 -106.6681 282° West 431 496 38,000  Level Salt Lake Center
12:51AM 45.2817 -106.8336 280° West 430 495 38,000  Level Salt Lake Center
12:52AM 45.3031 -107.0003 280° West 430 495 38,000  Level Salt Lake Center
12:53AM 45.3256 -107.1661 281° West 430 495 38,000  Level Salt Lake Center
12:54AM 45.3503 -107.3644 280° West 428 493 38,000  Level Salt Lake Center
12:55AM 45.3719 -107.5325 280° West 435 501 38,000  Level Salt Lake Center
12:56AM 45.3936 -107.7003 280° West 435 501 38,000  Level Salt Lake Center
12:57AM 45.4147 -107.8672 280° West 433 498 38,000  Level Salt Lake Center
12:58AM 45.4350 -108.0350 280° West 433 498 38,000  Level Salt Lake Center
12:59AM 45.4564 -108.2053 280° West 439 505 38,000  Level Salt Lake Center
01:00AM 45.4761 -108.3742 280° West 437 503 38,000  Level Salt Lake Center
01:01AM 45.4967 -108.5431 280° West 435 501 38,000  Level Salt Lake Center
01:02AM 45.5164 -108.7128 279° West 437 503 38,000 -660 Level Salt Lake Center
01:03AM 45.5400 -108.9183 279° West 441 507 36,700 -1,380 Descending Salt Lake Center
01:04AM 45.5600 -109.0931 279° West 449 517 35,200 -1,380 Descending Salt Lake Center
01:05AM 45.5811 -109.2725 280° West 463 533 34,000 -1,320 Descending Salt Lake Center
01:06AM 45.6014 -109.4497 279° West 457 526 32,600 -1,500 Descending Salt Lake Center
01:07AM 45.6217 -109.6303 279° West 462 532 31,000 -1,740 Descending Salt Lake Center
01:08AM 45.6411 -109.8128 279° West 467 537 29,100 -1,920 Descending Salt Lake Center
01:09AM 45.6603 -109.9917 279° West 459 528 27,100 -2,160 Descending Salt Lake Center
01:10AM 45.6797 -110.1661 279° West 450 518 24,800 -2,340 Descending Salt Lake Center
01:11AM 45.6969 -110.3356 278° West 437 503 22,400 -2,340 Descending Salt Lake Center
01:12AM 45.7122 -110.4964 278° West 417 480 20,100 -2,160 Descending Salt Lake Center
01:13AM 45.7275 -110.6433 279° West 387 445 18,100 -2,040 Descending Salt Lake Center
01:14AM 45.7400 -110.7769 278° West 352 405 16,000 -2,280 Descending Salt Lake Center
01:15AM 45.7542 -110.9086 279° West 339 390 13,500 -2,160 Descending Salt Lake Center
01:16AM 45.7694 -111.0464 279° West 329 379 11,700 -1,800 Descending Salt Lake Center
01:18AM 45.7667 -111.1500 270° West  Level FlightAware Approximate
01:25AM 45.7776 -111.1520 270° West  Level Estimated
01:26AM 45.7776 -111.1520 270° West  Level Estimated
01:27AM 45.7776 -111.1520 270° West  Level Estimated
01:28AM 45.7776 -111.1520 270° West  Level Estimated